createdAt,value
2022-10-23T00:01:31.412Z,18.05
2022-10-23T00:04:09.109Z,16.88
2022-10-23T00:06:36.569Z,24.58
2022-10-23T00:09:07.013Z,15.45
2022-10-23T00:11:34.942Z,19.60
2022-10-23T00:14:03.033Z,18.88
2022-10-23T00:16:30.693Z,16.90
2022-10-23T00:18:57.967Z,18.38
2022-10-23T00:21:25.459Z,16.50
2022-10-23T00:23:52.654Z,16.98
2022-10-23T00:26:19.831Z,16.20
2022-10-23T00:28:48.946Z,18.38
2022-10-23T00:31:16.457Z,16.85
2022-10-23T00:33:43.864Z,16.38
2022-10-23T00:36:12.110Z,18.98
2022-10-23T00:38:39.773Z,19.35
2022-10-23T00:41:08.026Z,17.45
2022-10-23T00:43:35.587Z,17.17
2022-10-23T00:46:02.736Z,17.85
2022-10-23T00:48:30.100Z,17.60
2022-10-23T00:50:57.551Z,15.82
2022-10-23T00:53:24.935Z,16.63
2022-10-23T00:55:53.856Z,18.08
2022-10-23T00:58:21.414Z,18.38
2022-10-23T01:00:55.896Z,15.32
2022-10-23T01:03:26.816Z,17.95
2022-10-23T01:05:56.629Z,17.60
2022-10-23T01:08:35.966Z,14.77
2022-10-23T01:11:11.017Z,15.95
2022-10-23T01:19:23.607Z,19.25
2022-10-23T01:21:53.389Z,19.85
2022-10-23T01:24:23.819Z,16.85
2022-10-23T01:26:55.937Z,17.95
2022-10-23T01:29:30.012Z,16.60
2022-10-23T01:32:00.719Z,14.48
2022-10-23T01:34:33.029Z,14.75
2022-10-23T01:37:02.753Z,17.27
2022-10-23T01:39:36.462Z,17.40
2022-10-23T01:42:09.573Z,14.90
2022-10-23T01:44:36.617Z,15.55
2022-10-23T01:47:04.661Z,15.48
2022-10-23T01:49:34.604Z,17.65
2022-10-23T01:52:02.940Z,17.20
2022-10-23T01:54:31.922Z,15.85
2022-10-23T01:56:59.381Z,18.27
2022-10-23T01:59:32.879Z,18.27
2022-10-23T02:02:01.077Z,14.93
2022-10-23T02:04:34.568Z,14.77
2022-10-23T02:07:01.969Z,14.45
2022-10-23T02:09:29.220Z,18.25
2022-10-23T02:12:02.494Z,16.45
2022-10-23T02:14:37.023Z,15.70
2022-10-23T02:17:45.754Z,16.10
2022-10-23T02:20:19.896Z,15.50
2022-10-23T02:23:00.858Z,18.63
2022-10-23T02:25:31.880Z,14.02
2022-10-23T02:28:02.611Z,17.15
2022-10-23T02:30:38.456Z,17.35
2022-10-23T02:33:10.120Z,18.67
2022-10-23T02:35:37.228Z,19.50
2022-10-23T02:38:35.943Z,16.70
2022-10-23T02:41:32.450Z,18.13
2022-10-23T02:44:02.594Z,15.60
2022-10-23T02:46:33.657Z,15.63
2022-10-23T02:49:20.142Z,16.92
2022-10-23T02:51:56.060Z,15.75
2022-10-23T02:54:35.522Z,16.88
2022-10-23T02:57:11.732Z,15.50
2022-10-23T02:59:48.335Z,16.58
2022-10-23T03:02:23.569Z,15.90
2022-10-23T03:04:51.618Z,18.63
2022-10-23T03:07:20.012Z,18.42
2022-10-23T03:09:47.554Z,16.88
2022-10-23T03:12:14.726Z,16.85
2022-10-23T03:14:41.798Z,16.48
2022-10-23T03:17:08.944Z,15.05
2022-10-23T03:19:36.041Z,13.60
2022-10-23T03:22:04.624Z,18.13
2022-10-23T03:24:31.697Z,17.02
2022-10-23T03:26:58.769Z,15.48
2022-10-23T03:29:31.459Z,17.60
2022-10-23T03:31:58.590Z,14.85
2022-10-23T03:34:26.279Z,15.45
2022-10-23T03:36:53.914Z,13.10
2022-10-23T03:39:21.460Z,15.65
2022-10-23T03:41:48.623Z,16.73
2022-10-23T03:44:17.262Z,17.08
2022-10-23T03:46:45.655Z,14.40
2022-10-23T03:49:12.729Z,17.23
2022-10-23T03:51:44.672Z,14.63
2022-10-23T03:54:11.719Z,17.88
2022-10-23T03:56:38.824Z,19.25
2022-10-23T03:59:08.097Z,16.05
2022-10-23T04:01:35.432Z,14.10
2022-10-23T04:04:03.550Z,16.48
2022-10-23T04:06:30.931Z,15.60
2022-10-23T04:08:59.373Z,17.05
2022-10-23T04:11:26.481Z,16.88
2022-10-23T04:13:53.927Z,15.13
2022-10-23T04:16:21.050Z,16.02
2022-10-23T04:18:48.115Z,14.23
2022-10-23T04:21:15.286Z,13.60
2022-10-23T04:23:42.596Z,14.48
2022-10-23T04:26:15.273Z,14.07
2022-10-23T04:28:42.602Z,15.02
2022-10-23T04:31:10.367Z,15.07
2022-10-23T04:33:40.923Z,16.60
2022-10-23T04:36:08.247Z,13.93
2022-10-23T04:38:35.295Z,15.60
2022-10-23T04:41:03.446Z,13.27
2022-10-23T04:43:30.527Z,15.75
2022-10-23T04:45:57.912Z,14.27
2022-10-23T04:48:27.078Z,14.73
2022-10-23T04:51:25.583Z,13.32
2022-10-23T04:54:09.423Z,13.18
2022-10-23T04:56:47.355Z,12.30
2022-10-23T04:59:20.090Z,14.63
2022-10-23T05:01:47.691Z,14.57
2022-10-23T05:04:14.864Z,12.30
2022-10-23T05:07:02.324Z,13.68
2022-10-23T05:09:46.570Z,15.25
2022-10-23T05:12:29.723Z,13.50
2022-10-23T05:14:57.165Z,18.38
2022-10-23T05:17:28.326Z,16.98
2022-10-23T05:19:56.878Z,16.38
2022-10-23T05:22:25.930Z,13.80
2022-10-23T05:24:54.158Z,17.60
2022-10-23T05:27:26.071Z,14.48
2022-10-23T05:29:54.777Z,17.23
2022-10-23T05:32:26.364Z,16.38
2022-10-23T05:34:53.917Z,15.88
2022-10-23T05:37:21.046Z,18.45
2022-10-23T05:39:48.263Z,16.27
2022-10-23T05:42:17.226Z,17.10
2022-10-23T05:44:45.299Z,15.65
2022-10-23T05:47:37.057Z,16.70
2022-10-23T05:50:16.465Z,12.77
2022-10-23T05:53:02.028Z,13.48
2022-10-23T05:55:50.291Z,14.25
2022-10-23T05:58:49.903Z,13.98
2022-10-23T06:01:38.014Z,17.13
2022-10-23T06:04:07.355Z,14.20
2022-10-23T06:06:56.699Z,15.43
2022-10-23T06:09:23.765Z,14.52
2022-10-23T06:11:55.802Z,12.65
2022-10-23T06:14:23.590Z,15.45
2022-10-23T06:16:52.262Z,12.50
2022-10-23T06:19:19.867Z,17.50
2022-10-23T06:21:50.303Z,13.23
2022-10-23T06:24:17.697Z,11.15
2022-10-23T06:26:49.728Z,17.58
2022-10-23T06:29:21.265Z,17.65
2022-10-23T06:31:50.400Z,14.25
2022-10-23T06:34:17.893Z,12.80
2022-10-23T06:36:46.557Z,12.55
2022-10-23T06:39:43.101Z,14.48
2022-10-23T06:42:23.222Z,14.70
2022-10-23T06:44:56.567Z,14.23
2022-10-23T06:47:43.848Z,16.33
2022-10-23T06:50:32.440Z,13.68
2022-10-23T06:53:05.328Z,12.07
2022-10-23T06:55:33.729Z,12.93
2022-10-23T06:58:00.879Z,12.98
2022-10-23T07:00:28.828Z,13.48
2022-10-23T07:02:56.905Z,12.18
2022-10-23T07:05:23.960Z,13.32
2022-10-23T07:07:51.343Z,15.95
2022-10-23T07:10:25.505Z,11.00
2022-10-23T07:13:06.101Z,14.73
2022-10-23T07:15:33.148Z,13.50
2022-10-23T07:18:01.030Z,13.35
2022-10-23T07:20:39.899Z,11.63
2022-10-23T07:23:07.115Z,10.90
2022-10-23T07:25:38.762Z,12.05
2022-10-23T07:28:06.652Z,15.90
2022-10-23T07:30:34.163Z,16.08
2022-10-23T07:33:02.447Z,12.20
2022-10-23T07:35:55.945Z,14.98
2022-10-23T07:38:27.849Z,15.98
2022-10-23T07:40:57.607Z,13.63
2022-10-23T07:43:25.442Z,15.82
2022-10-23T07:45:53.031Z,14.15
2022-10-23T07:48:37.644Z,17.05
2022-10-23T07:51:08.407Z,13.50
2022-10-23T07:53:39.997Z,13.13
2022-10-23T07:56:17.880Z,13.77
2022-10-23T07:59:07.803Z,16.48
2022-10-23T08:01:37.475Z,14.27
2022-10-23T08:04:05.459Z,17.15
2022-10-23T08:06:35.340Z,13.57
2022-10-23T08:09:06.205Z,12.68
2022-10-23T08:14:08.261Z,13.55
2022-10-23T08:16:36.651Z,12.82
2022-10-23T08:19:04.474Z,14.80
2022-10-23T08:21:32.023Z,14.32
2022-10-23T08:23:59.828Z,14.75
2022-10-23T08:26:29.363Z,13.18
2022-10-23T08:28:56.896Z,13.18
2022-10-23T08:31:23.966Z,12.35
2022-10-23T08:34:08.595Z,13.73
2022-10-23T08:36:36.397Z,16.02
2022-10-23T08:39:04.716Z,18.27
2022-10-23T08:41:42.897Z,15.50
2022-10-23T08:44:13.689Z,13.77
2022-10-23T08:46:47.752Z,14.07
2022-10-23T08:49:37.009Z,15.25
2022-10-23T08:52:14.950Z,13.35
2022-10-23T08:54:49.364Z,10.60
2022-10-23T08:57:17.840Z,14.07
2022-10-23T08:59:47.695Z,12.85
2022-10-23T09:02:20.092Z,11.75
2022-10-23T09:04:49.190Z,16.05
2022-10-23T09:07:26.441Z,12.13
2022-10-23T09:09:56.602Z,11.07
2022-10-23T09:12:24.676Z,13.73
2022-10-23T09:15:09.054Z,12.60
2022-10-23T09:17:38.985Z,12.02
2022-10-23T09:20:14.044Z,10.57
2022-10-23T09:22:41.593Z,12.77
2022-10-23T09:25:16.190Z,11.52
2022-10-23T09:27:53.223Z,15.45
2022-10-23T09:30:49.168Z,10.40
2022-10-23T09:33:17.870Z,13.32
2022-10-23T09:36:02.175Z,9.43
2022-10-23T09:38:40.093Z,11.35
2022-10-23T09:41:10.991Z,9.85
2022-10-23T09:43:38.103Z,12.43
2022-10-23T09:46:07.765Z,15.38
2022-10-23T09:48:36.262Z,10.98
2022-10-23T09:51:20.010Z,10.88
2022-10-23T09:53:57.610Z,12.52
2022-10-23T09:56:26.085Z,11.30
2022-10-23T09:58:56.690Z,9.27
2022-10-23T10:01:29.921Z,8.57
2022-10-23T10:04:11.092Z,9.65
2022-10-23T10:06:38.275Z,10.35
2022-10-23T10:09:15.499Z,10.75
2022-10-23T10:11:52.338Z,7.68
2022-10-23T10:14:36.612Z,9.90
2022-10-23T10:17:12.957Z,9.88
2022-10-23T10:19:39.991Z,10.63
2022-10-23T10:22:23.384Z,12.38
2022-10-23T10:24:57.170Z,9.60
2022-10-23T10:28:03.695Z,8.20
2022-10-23T10:30:37.731Z,11.13
2022-10-23T10:33:15.848Z,11.18
2022-10-23T10:35:46.477Z,8.50
2022-10-23T10:38:31.658Z,9.68
2022-10-23T10:41:37.275Z,8.70
2022-10-23T10:44:04.396Z,9.85
2022-10-23T10:46:49.965Z,10.57
2022-10-23T10:52:22.713Z,9.27
2022-10-23T10:55:18.435Z,10.30
2022-10-23T10:57:54.980Z,9.02
2022-10-23T11:00:24.285Z,11.60
2022-10-23T11:03:09.983Z,9.43
2022-10-23T11:08:16.962Z,12.60
2022-10-23T11:10:50.272Z,8.57
2022-10-23T11:13:36.166Z,8.93
2022-10-23T11:16:12.091Z,7.90
2022-10-23T11:18:41.542Z,10.73
2022-10-23T11:21:17.698Z,11.75
2022-10-23T11:23:55.959Z,9.10
2022-10-23T11:26:42.764Z,10.75
2022-10-23T11:29:31.114Z,8.38
2022-10-23T11:31:58.145Z,9.55
2022-10-23T11:34:40.309Z,8.07
2022-10-23T11:37:09.009Z,9.63
2022-10-23T11:39:37.052Z,9.32
2022-10-23T11:42:09.554Z,10.43
2022-10-23T11:44:40.584Z,7.07
2022-10-23T11:47:26.701Z,8.25
2022-10-23T11:50:11.246Z,9.75
2022-10-23T11:52:45.764Z,9.25
2022-10-23T11:55:24.215Z,10.25
2022-10-23T11:58:13.736Z,9.60
2022-10-23T12:00:51.807Z,9.00
2022-10-23T12:03:23.385Z,9.88
2022-10-23T12:05:57.970Z,10.35
2022-10-23T12:08:28.588Z,8.68
2022-10-23T12:10:55.946Z,11.38
2022-10-23T12:13:42.475Z,9.20
2022-10-23T12:16:09.690Z,6.90
2022-10-23T12:18:53.831Z,6.50
2022-10-23T12:21:28.445Z,10.00
2022-10-23T12:24:39.820Z,10.23
2022-10-23T12:27:24.175Z,9.23
2022-10-23T12:29:59.777Z,8.63
2022-10-23T12:32:48.185Z,7.10
2022-10-23T12:35:18.110Z,6.97
2022-10-23T12:37:52.355Z,9.98
2022-10-23T12:40:19.503Z,7.13
2022-10-23T12:42:54.579Z,8.07
2022-10-23T12:45:32.902Z,6.63
2022-10-23T12:48:00.390Z,7.15
2022-10-23T12:50:30.032Z,9.10
2022-10-23T12:52:57.185Z,8.50
2022-10-23T12:55:25.676Z,7.75
2022-10-23T12:57:53.267Z,8.70
2022-10-23T13:00:21.924Z,9.32
2022-10-23T13:03:00.277Z,10.25
2022-10-23T13:05:27.761Z,6.97
2022-10-23T13:07:55.183Z,6.82
2022-10-23T13:10:33.514Z,7.50
2022-10-23T13:13:06.302Z,10.20
2022-10-23T13:15:44.574Z,7.80
2022-10-23T13:18:14.409Z,5.35
2022-10-23T13:20:44.264Z,8.55
2022-10-23T13:23:41.807Z,8.02
2022-10-23T13:26:45.075Z,8.57
2022-10-23T13:29:20.753Z,8.13
2022-10-23T13:31:48.250Z,7.78
2022-10-23T13:34:17.549Z,8.18
2022-10-23T13:36:53.574Z,7.60
2022-10-23T13:39:32.104Z,8.98
2022-10-23T13:42:12.027Z,6.57
2022-10-23T13:44:39.439Z,7.63
2022-10-23T13:47:06.822Z,7.25
2022-10-23T13:49:33.887Z,6.38
2022-10-23T13:52:00.932Z,7.18
2022-10-23T13:54:28.988Z,6.88
2022-10-23T13:56:56.679Z,8.73
2022-10-23T13:59:23.888Z,8.30
2022-10-23T14:01:51.482Z,6.57
2022-10-23T14:04:19.082Z,8.00
2022-10-23T14:06:46.223Z,7.82
2022-10-23T14:09:17.683Z,9.20
2022-10-23T14:11:45.142Z,7.18
2022-10-23T14:14:12.246Z,8.57
2022-10-23T14:16:39.304Z,8.52
2022-10-23T14:19:06.483Z,6.63
2022-10-23T14:21:33.558Z,7.10
2022-10-23T14:24:00.595Z,7.63
2022-10-23T14:26:30.046Z,10.70
2022-10-23T14:29:00.670Z,9.23
2022-10-23T14:31:31.529Z,8.90
2022-10-23T14:34:00.615Z,7.45
2022-10-23T14:36:38.380Z,9.35
2022-10-23T14:39:16.128Z,7.20
2022-10-23T14:41:43.249Z,7.72
2022-10-23T14:44:10.353Z,5.72
2022-10-23T14:46:38.218Z,6.60
2022-10-23T14:49:05.411Z,8.93
2022-10-23T14:51:32.487Z,6.10
2022-10-23T14:54:04.591Z,5.88
2022-10-23T14:56:32.737Z,8.10
2022-10-23T14:59:03.417Z,10.20
2022-10-23T15:01:30.922Z,9.27
2022-10-23T15:03:58.075Z,5.93
2022-10-23T15:06:25.190Z,7.20
2022-10-23T15:08:54.879Z,11.65
2022-10-23T15:11:22.096Z,8.05
2022-10-23T15:13:49.143Z,6.78
2022-10-23T15:16:16.573Z,8.10
2022-10-23T15:18:43.711Z,8.77
2022-10-23T15:21:10.959Z,7.00
2022-10-23T15:23:40.162Z,6.55
2022-10-23T15:26:09.536Z,9.10
2022-10-23T15:28:36.596Z,8.55
2022-10-23T15:31:03.978Z,9.38
2022-10-23T15:33:31.074Z,8.25
2022-10-23T15:35:58.139Z,11.73
2022-10-23T15:38:26.034Z,8.48
2022-10-23T15:41:00.356Z,9.30
2022-10-23T15:43:27.432Z,8.38
2022-10-23T15:45:54.560Z,9.75
2022-10-23T15:48:21.602Z,10.10
2022-10-23T15:50:48.734Z,9.52
2022-10-23T15:53:15.905Z,9.77
2022-10-23T15:55:42.998Z,10.07
2022-10-23T15:58:10.051Z,9.63
2022-10-23T16:00:38.301Z,8.60
2022-10-23T16:03:05.344Z,13.10
2022-10-23T16:05:32.478Z,10.57
2022-10-23T16:07:59.538Z,7.97
2022-10-23T16:10:26.586Z,9.55
2022-10-23T16:12:53.663Z,12.50
2022-10-23T16:15:20.721Z,10.13
2022-10-23T16:17:48.782Z,8.93
2022-10-23T16:20:16.381Z,11.90
2022-10-23T16:22:45.055Z,7.75
2022-10-23T16:25:12.240Z,12.05
2022-10-23T16:27:39.449Z,8.63
2022-10-23T16:30:09.175Z,8.80
2022-10-23T16:32:36.747Z,9.10
2022-10-23T16:35:03.822Z,11.68
2022-10-23T16:37:41.172Z,11.88
2022-10-23T16:40:14.064Z,9.35
2022-10-23T16:43:04.329Z,12.95
2022-10-23T16:45:37.818Z,9.18
2022-10-23T16:48:05.157Z,10.10
2022-10-23T16:50:32.247Z,10.30
2022-10-23T16:52:59.286Z,8.77
2022-10-23T16:55:26.368Z,9.32
2022-10-23T16:57:53.414Z,9.10
2022-10-23T17:00:22.540Z,10.18
2022-10-23T17:02:49.722Z,9.98
2022-10-23T17:05:16.779Z,11.85
2022-10-23T17:07:44.141Z,9.98
2022-10-23T17:10:11.420Z,9.90
2022-10-23T17:12:38.487Z,10.80
2022-10-23T17:15:05.919Z,10.95
2022-10-23T17:17:33.389Z,10.85
2022-10-23T17:20:00.517Z,9.98
2022-10-23T17:22:27.732Z,15.43
2022-10-23T17:24:54.864Z,9.98
2022-10-23T17:27:21.963Z,11.27
2022-10-23T17:29:49.050Z,9.48
2022-10-23T17:32:16.222Z,12.57
2022-10-23T17:34:43.408Z,8.65
2022-10-23T17:37:13.060Z,11.80
2022-10-23T17:39:41.199Z,11.20
2022-10-23T17:42:08.263Z,10.40
2022-10-23T17:44:35.328Z,8.30
2022-10-23T17:47:02.404Z,10.40
2022-10-23T17:49:29.434Z,10.02
2022-10-23T17:51:57.658Z,9.60
2022-10-23T17:54:26.163Z,8.60
2022-10-23T17:56:53.285Z,10.68
2022-10-23T17:59:20.378Z,8.70
2022-10-23T18:01:48.983Z,10.32
2022-10-23T18:04:18.237Z,10.00
2022-10-23T18:06:47.753Z,8.13
2022-10-23T18:09:14.827Z,9.27
2022-10-23T18:11:45.231Z,9.10
2022-10-23T18:14:14.424Z,11.27
2022-10-23T18:16:41.731Z,8.10
2022-10-23T18:19:08.857Z,15.77
2022-10-23T18:21:37.790Z,9.15
2022-10-23T18:24:05.112Z,9.15
2022-10-23T18:26:34.923Z,10.38
2022-10-23T18:29:04.299Z,9.25
2022-10-23T18:31:31.451Z,9.45
2022-10-23T18:34:04.048Z,6.90
2022-10-23T18:36:33.382Z,8.38
2022-10-23T18:39:00.605Z,11.20
2022-10-23T18:41:28.092Z,8.27
2022-10-23T18:43:55.549Z,11.80
2022-10-23T18:46:22.648Z,6.57
2022-10-23T18:48:53.071Z,7.50
2022-10-23T18:51:23.424Z,8.23
2022-10-23T18:53:51.031Z,7.65
2022-10-23T18:56:23.320Z,7.72
2022-10-23T18:58:51.402Z,10.88
2022-10-23T19:01:19.222Z,9.77
2022-10-23T19:03:46.733Z,8.65
2022-10-23T19:06:14.460Z,9.73
2022-10-23T19:08:42.950Z,13.40
2022-10-23T19:11:10.527Z,11.40
2022-10-23T19:13:39.182Z,11.57
2022-10-23T19:16:11.406Z,12.48
2022-10-23T19:18:38.970Z,9.90
2022-10-23T19:21:06.296Z,8.50
2022-10-23T19:23:36.220Z,8.63
2022-10-23T19:26:11.841Z,9.60
2022-10-23T19:28:40.619Z,8.90
2022-10-23T19:31:09.723Z,12.38
2022-10-23T19:33:38.390Z,10.30
2022-10-23T19:36:07.987Z,11.18
2022-10-23T19:38:40.055Z,10.15
2022-10-23T19:41:07.310Z,8.82
2022-10-23T19:43:34.430Z,8.40
2022-10-23T19:46:04.982Z,6.45
2022-10-23T19:48:35.057Z,9.98
2022-10-23T19:51:02.203Z,5.32
2022-10-23T19:53:29.558Z,9.25
2022-10-23T19:56:07.164Z,8.85
2022-10-23T19:58:34.249Z,7.30
2022-10-23T20:01:13.668Z,11.07
2022-10-23T20:03:41.687Z,9.18
2022-10-23T20:06:09.683Z,9.23
2022-10-23T20:08:36.806Z,8.32
2022-10-23T20:11:03.851Z,8.15
2022-10-23T20:13:31.096Z,8.77
2022-10-23T20:15:58.143Z,9.07
2022-10-23T20:18:25.902Z,9.00
2022-10-23T20:20:53.588Z,6.70
2022-10-23T20:23:20.917Z,8.98
2022-10-23T20:25:48.070Z,6.72
2022-10-23T20:28:15.348Z,6.30
2022-10-23T20:30:44.000Z,6.47
2022-10-23T20:33:11.179Z,8.23
2022-10-23T20:35:39.974Z,8.40
2022-10-23T20:38:07.123Z,4.75
2022-10-23T20:40:34.425Z,4.82
2022-10-23T20:43:01.471Z,7.68
2022-10-23T20:45:28.601Z,4.88
2022-10-23T20:47:55.664Z,5.47
2022-10-23T20:50:23.794Z,8.18
2022-10-23T20:52:51.283Z,5.53
2022-10-23T20:55:18.315Z,6.82
2022-10-23T20:57:45.790Z,4.03
2022-10-23T21:00:13.349Z,4.55
2022-10-23T21:02:40.652Z,4.75
2022-10-23T21:05:08.243Z,8.02
2022-10-23T21:07:35.326Z,3.60
2022-10-23T21:10:03.237Z,4.57
2022-10-23T21:12:30.471Z,2.65
2022-10-23T21:14:57.658Z,2.40
2022-10-23T21:17:24.908Z,5.93
2022-10-23T21:19:52.030Z,2.33
2022-10-23T21:22:19.121Z,3.45
2022-10-23T21:24:46.244Z,2.88
2022-10-23T21:27:15.034Z,8.90
2022-10-23T21:29:42.180Z,4.20
2022-10-23T21:32:09.348Z,3.45
2022-10-23T21:34:36.574Z,2.30
2022-10-23T21:37:13.035Z,4.60
2022-10-23T21:39:41.742Z,6.45
2022-10-23T21:42:08.872Z,2.88
2022-10-23T21:44:36.096Z,3.58
2022-10-23T21:47:03.159Z,6.93
2022-10-23T21:49:30.220Z,5.60
2022-10-23T21:51:57.272Z,7.65
2022-10-23T21:54:24.345Z,4.53
2022-10-23T21:56:55.683Z,2.75
2022-10-23T21:59:25.789Z,12.07
2022-10-23T22:01:56.290Z,4.35
2022-10-23T22:04:23.544Z,5.30
2022-10-23T22:06:50.857Z,3.92
2022-10-23T22:09:19.569Z,4.85
2022-10-23T22:11:46.911Z,3.97
2022-10-23T22:14:13.994Z,4.13
2022-10-23T22:16:41.999Z,5.13
2022-10-23T22:19:10.472Z,5.32
2022-10-23T22:21:37.639Z,3.90
2022-10-23T22:26:38.432Z,2.38
2022-10-23T22:29:07.205Z,4.80
2022-10-23T22:31:34.967Z,6.13
2022-10-23T22:34:13.279Z,5.07
2022-10-23T22:36:51.363Z,5.95
2022-10-23T22:39:18.410Z,4.88
2022-10-23T22:41:46.457Z,5.10
2022-10-23T22:44:17.552Z,5.75
2022-10-23T22:46:45.035Z,4.38
2022-10-23T22:49:12.110Z,6.20
2022-10-23T22:51:42.228Z,9.32
2022-10-23T22:54:09.447Z,7.95
2022-10-23T22:56:36.571Z,6.03
2022-10-23T22:59:04.503Z,7.47
2022-10-23T23:01:34.394Z,6.40
2022-10-23T23:04:13.738Z,5.95
2022-10-23T23:06:48.860Z,6.78
2022-10-23T23:09:18.066Z,4.07
2022-10-23T23:11:52.072Z,4.18
2022-10-23T23:14:23.448Z,8.75
2022-10-23T23:16:52.028Z,8.02
2022-10-23T23:19:19.302Z,5.85
2022-10-23T23:21:46.394Z,9.07
2022-10-23T23:24:13.578Z,4.60
2022-10-23T23:26:41.044Z,8.63
2022-10-23T23:29:08.301Z,5.78
2022-10-23T23:31:35.365Z,6.43
2022-10-23T23:34:02.423Z,7.97
2022-10-23T23:36:29.633Z,5.82
2022-10-23T23:38:57.529Z,5.72
2022-10-23T23:41:25.877Z,8.32
2022-10-23T23:43:54.506Z,7.43
2022-10-23T23:46:21.741Z,6.43
2022-10-23T23:48:49.740Z,6.50
2022-10-23T23:51:18.295Z,7.97
2022-10-23T23:53:45.414Z,8.38
2022-10-23T23:56:12.578Z,7.22
2022-10-23T23:58:39.619Z,6.43
